Time;durP1;ratioP1;P1;durP2;ratioP2;P2;SDS_P1;SDS_P2;PMS_P1;PMS_P2;Temp;Humidity;BMP_temperature;BMP_pressure;BME280_temperature;BME280_humidity;BME280_pressure;Samples;Min_cycle;Max_cycle;Signal;HPM_P1;HPM_P2
2022/11/04 00:01:48;;;;;;;80.15;45.00;;;256.40;2252.80;;;;;;5152874;27;20066;-71
2022/11/04 00:04:16;;;;;;;67.45;42.58;;;256.40;2252.80;;;;;;5152782;27;20026;-71
2022/11/04 00:06:42;;;;;;;78.82;50.03;;;256.30;2252.80;;;;;;5152598;27;20075;-69
2022/11/04 00:09:10;;;;;;;70.28;44.10;;;256.20;2252.80;;;;;;5152739;27;20031;-70
2022/11/04 00:14:20;;;;;;;51.75;32.47;;;256.50;2252.80;;;;;;5152434;27;20047;-63
2022/11/04 00:30:28;;;;;;;114.38;71.95;;;256.70;2252.80;;;;;;5152915;27;20428;-71
2022/11/04 00:35:37;;;;;;;76.70;48.25;;;256.50;2252.80;;;;;;5152739;27;20412;-69
2022/11/04 00:38:03;;;;;;;80.85;48.15;;;256.50;2252.80;;;;;;5151987;27;20027;-71
2022/11/04 00:40:29;;;;;;;93.57;54.50;;;256.50;2252.80;;;;;;5152043;27;20050;-70
2022/11/04 00:42:54;;;;;;;87.75;51.28;;;256.50;2252.80;;;;;;5133471;27;20035;-71
2022/11/04 00:45:20;;;;;;;78.18;49.38;;;256.60;2252.80;;;;;;5151948;27;20109;-61
2022/11/04 00:47:46;;;;;;;67.95;41.88;;;256.60;2252.80;;;;;;5152364;27;20019;-72
2022/11/04 00:50:11;;;;;;;61.88;38.65;;;256.50;2252.80;;;;;;5151898;27;20022;-71
2022/11/04 00:52:37;;;;;;;94.90;51.90;;;256.50;2252.80;;;;;;5152239;27;20041;-71
2022/11/04 00:55:03;;;;;;;85.40;50.65;;;256.50;2252.80;;;;;;5151715;27;20027;-63
2022/11/04 00:57:29;;;;;;;238.18;123.78;;;256.50;2252.80;;;;;;5152124;27;20031;-63
2022/11/04 00:59:55;;;;;;;84.57;46.50;;;256.60;2252.80;;;;;;5151736;27;20481;-64
2022/11/04 01:02:20;;;;;;;107.72;56.80;;;256.60;2252.80;;;;;;5151702;27;20061;-65
2022/11/04 01:04:46;;;;;;;80.32;48.15;;;256.70;2252.80;;;;;;5151580;27;20022;-73
2022/11/04 01:07:12;;;;;;;81.22;44.45;;;256.70;2252.80;;;;;;5151616;27;20023;-63
2022/11/04 01:09:38;;;;;;;82.43;54.13;;;256.70;2252.80;;;;;;5151661;27;20065;-71
2022/11/04 01:12:04;;;;;;;85.70;56.08;;;256.50;2252.80;;;;;;5151642;27;20079;-71
2022/11/04 01:14:30;;;;;;;82.18;51.92;;;256.50;2252.80;;;;;;5151731;27;20027;-71
2022/11/04 01:16:55;;;;;;;87.22;52.80;;;256.50;2252.80;;;;;;5151664;27;20026;-65
2022/11/04 01:19:21;;;;;;;85.35;53.55;;;256.50;2252.80;;;;;;5151462;27;20026;-68
2022/11/04 01:21:51;;;;;;;87.97;51.78;;;256.50;2252.80;;;;;;5151543;27;20369;-73
2022/11/04 01:24:17;;;;;;;97.30;58.30;;;256.40;2252.80;;;;;;5151649;27;20049;-66
2022/11/04 01:26:43;;;;;;;109.38;65.78;;;256.40;2252.80;;;;;;5151403;27;20124;-70
2022/11/04 01:29:09;;;;;;;102.00;65.32;;;256.30;2252.80;;;;;;5154151;27;20536;-73
2022/11/04 01:31:35;;;;;;;184.88;105.18;;;256.30;2252.80;;;;;;5155586;27;20408;-71
2022/11/04 01:34:00;;;;;;;134.60;75.28;;;256.40;2252.80;;;;;;5155604;27;20121;-63
2022/11/04 01:36:27;;;;;;;83.50;55.20;;;256.40;2252.80;;;;;;5155720;27;20029;-63
2022/11/04 01:38:57;;;;;;;118.00;65.35;;;256.30;2252.80;;;;;;5155433;27;20031;-71
2022/11/04 01:41:26;;;;;;;130.38;78.80;;;256.40;2252.80;;;;;;5149693;27;20043;-70
2022/11/04 01:43:56;;;;;;;103.00;64.03;;;256.30;2252.80;;;;;;5142739;27;20102;-70
2022/11/04 01:46:48;;;;;;;108.32;65.07;;;256.40;2252.80;;;;;;5144770;27;20094;-60
2022/11/04 01:49:22;;;;;;;106.13;60.30;;;256.40;2252.80;;;;;;5142584;27;20495;-73
2022/11/04 01:51:52;;;;;;;94.30;59.00;;;256.40;2252.80;;;;;;5145553;27;20071;-75
2022/11/04 01:54:19;;;;;;;61.50;41.63;;;256.40;2252.80;;;;;;5144196;27;20477;-70
2022/11/04 01:56:47;;;;;;;49.42;35.72;;;256.20;2252.80;;;;;;5143744;27;20027;-73
2022/11/04 01:59:20;;;;;;;57.42;37.05;;;256.20;2252.80;;;;;;5142391;27;20018;-70
2022/11/04 02:01:46;;;;;;;47.25;31.88;;;256.30;2252.80;;;;;;5145799;27;20015;-73
2022/11/04 02:04:25;;;;;;;46.25;29.13;;;256.30;2252.80;;;;;;5146063;27;20023;-64
2022/11/04 02:06:59;;;;;;;36.10;23.02;;;256.40;2252.80;;;;;;5142897;27;20465;-72
2022/11/04 02:09:28;;;;;;;61.42;31.55;;;256.50;2252.80;;;;;;5152035;27;20030;-71
2022/11/04 02:14:40;;;;;;;42.72;31.35;;;256.50;2252.80;;;;;;5155614;27;20046;-72
2022/11/04 02:17:11;;;;;;;48.00;31.30;;;256.40;2252.80;;;;;;5155280;27;20027;-63
2022/11/04 02:20:08;;;;;;;44.83;29.77;;;256.40;2252.80;;;;;;5136516;27;20061;-71
2022/11/04 02:22:58;;;;;;;63.05;35.83;;;256.40;2252.80;;;;;;5154741;27;20353;-58
2022/11/04 02:25:48;;;;;;;61.05;33.65;;;256.40;2252.80;;;;;;5154827;27;20070;-65
2022/11/04 02:28:25;;;;;;;43.00;27.67;;;256.30;2252.80;;;;;;5154668;27;20083;-70
2022/11/04 02:31:19;;;;;;;46.05;28.08;;;256.20;2252.80;;;;;;5154838;27;20023;-70
2022/11/04 02:34:01;;;;;;;49.92;32.05;;;256.20;2252.80;;;;;;5154506;27;20476;-70
2022/11/04 02:36:37;;;;;;;50.50;33.05;;;256.00;2252.80;;;;;;5154801;27;20027;-70
2022/11/04 02:39:34;;;;;;;48.72;31.23;;;231.30;2252.80;;;;;;5154223;27;20026;-70
2022/11/04 02:42:28;;;;;;;51.90;34.15;;;231.30;2252.80;;;;;;5150342;27;20095;-68
2022/11/04 02:45:35;;;;;;;41.15;27.75;;;231.20;2252.80;;;;;;5154320;27;20023;-71
2022/11/04 02:48:10;;;;;;;48.80;31.92;;;231.20;2252.80;;;;;;5050138;28;20134;-69
2022/11/04 02:50:39;;;;;;;48.25;27.27;;;231.20;2252.80;;;;;;5050389;28;20086;-71
2022/11/04 02:53:25;;;;;;;45.13;27.40;;;230.90;2252.80;;;;;;5050120;28;20067;-70
2022/11/04 02:55:55;;;;;;;44.63;27.58;;;230.80;2252.80;;;;;;5050045;28;20033;-67
2022/11/04 02:58:26;;;;;;;44.28;24.88;;;230.80;2252.80;;;;;;5049995;28;20037;-72
2022/11/04 03:00:55;;;;;;;40.65;24.02;;;230.90;2252.80;;;;;;5050179;28;20033;-73
2022/11/04 03:03:25;;;;;;;34.72;21.58;;;230.90;2252.80;;;;;;5050005;28;20029;-74
2022/11/04 03:05:53;;;;;;;34.53;23.52;;;231.00;2252.80;;;;;;5049814;28;20033;-69
2022/11/04 03:08:30;;;;;;;35.97;22.13;;;231.00;2252.80;;;;;;5049936;28;20047;-72
2022/11/04 03:11:08;;;;;;;38.72;23.70;;;230.90;2252.80;;;;;;5050094;28;20037;-72
2022/11/04 03:14:00;;;;;;;31.48;18.15;;;231.00;2252.80;;;;;;5049747;28;20033;-73
2022/11/04 03:16:49;;;;;;;24.20;15.85;;;231.00;2252.80;;;;;;5010257;28;20083;-73
2022/11/04 03:19:42;;;;;;;28.83;17.67;;;231.10;2252.80;;;;;;5010369;28;20022;-70
2022/11/04 03:22:15;;;;;;;34.75;21.52;;;231.20;2252.80;;;;;;5010257;28;20034;-70
2022/11/04 03:24:41;;;;;;;;;;;231.20;2252.80;;;;;;5059559;28;20601;-69
2022/11/04 03:27:40;;;;;;;34.42;21.35;;;231.20;2252.80;;;;;;5089967;28;19916;-65
2022/11/04 03:30:11;;;;;;;46.22;23.63;;;231.20;2252.80;;;;;;5089811;28;20030;-69
2022/11/04 03:32:42;;;;;;;41.13;23.73;;;230.90;2252.80;;;;;;5089683;28;20482;-64
2022/11/04 03:35:09;;;;;;;36.75;20.10;;;230.90;2252.80;;;;;;5089818;28;20050;-71
2022/11/04 03:37:35;;;;;;;26.95;17.67;;;230.70;2252.80;;;;;;5089459;28;20099;-71
2022/11/04 03:40:02;;;;;;;32.42;18.98;;;231.10;2252.80;;;;;;5089038;28;20143;-70
2022/11/04 03:42:31;;;;;;;27.67;17.30;;;231.20;2252.80;;;;;;5089524;28;20483;-71
2022/11/04 03:44:58;;;;;;;22.25;16.38;;;231.20;2252.80;;;;;;5089584;28;20020;-70
2022/11/04 03:47:26;;;;;;;27.40;15.95;;;231.20;2252.80;;;;;;5089295;28;20039;-70
2022/11/04 03:50:05;;;;;;;27.73;15.63;;;231.10;2252.80;;;;;;5089188;28;20099;-71
2022/11/04 03:52:31;;;;;;;25.23;15.57;;;231.20;2252.80;;;;;;5097636;27;20484;-71
2022/11/04 03:54:56;;;;;;;24.48;15.82;;;231.20;2252.80;;;;;;5153177;27;20075;-72
2022/11/04 03:57:42;;;;;;;24.17;15.05;;;256.00;2252.80;;;;;;5152963;27;20031;-68
2022/11/04 04:00:11;;;;;;;26.67;16.33;;;231.30;2252.80;;;;;;5153089;27;20026;-71
2022/11/04 04:03:08;;;;;;;27.25;15.57;;;231.10;2252.80;;;;;;5153323;27;20023;-71
2022/11/04 04:05:41;;;;;;;24.08;13.02;;;231.10;2252.80;;;;;;5152955;27;20050;-70
2022/11/04 04:08:39;;;;;;;20.67;12.27;;;256.10;2252.80;;;;;;5152998;27;20046;-72
2022/11/04 04:11:30;;;;;;;24.95;14.18;;;231.30;2252.80;;;;;;5153041;27;20138;-72
2022/11/04 04:14:01;;;;;;;27.30;15.13;;;231.20;2252.80;;;;;;5152838;27;20543;-72
2022/11/04 04:16:32;;;;;;;29.60;14.82;;;231.20;2252.80;;;;;;5152845;27;20030;-69
2022/11/04 04:19:01;;;;;;;26.58;13.73;;;231.10;2252.80;;;;;;5152750;27;20023;-65
2022/11/04 04:21:36;;;;;;;21.42;13.32;;;231.10;2252.80;;;;;;5152544;27;20019;-68
2022/11/04 04:29:37;;;;;;;28.23;17.98;;;231.10;2252.80;;;;;;5152750;27;20034;-72
2022/11/04 04:32:05;;;;;;;23.30;14.60;;;231.20;2252.80;;;;;;5152174;27;20026;-72
2022/11/04 04:34:32;;;;;;;18.73;11.70;;;231.30;2252.80;;;;;;5152177;27;20027;-67
2022/11/04 04:37:16;;;;;;;19.33;12.52;;;256.10;2252.80;;;;;;5152145;27;20015;-71
2022/11/04 04:45:31;;;;;;;18.60;9.95;;;256.50;2252.80;;;;;;5152376;27;20033;-71
2022/11/04 04:47:57;;;;;;;22.67;12.32;;;256.90;2252.80;;;;;;5152297;27;20027;-69
2022/11/04 04:50:30;;;;;;;22.25;12.18;;;256.90;2252.80;;;;;;5152146;27;20027;-71
2022/11/04 04:52:58;;;;;;;31.45;19.25;;;256.70;2252.80;;;;;;5151895;27;20035;-70
2022/11/04 04:55:24;;;;;;;27.90;16.83;;;256.70;2252.80;;;;;;5151875;27;20031;-69
2022/11/04 04:57:50;;;;;;;20.27;12.55;;;256.70;2252.80;;;;;;5152348;27;20027;-72
2022/11/04 05:00:18;;;;;;;30.77;19.52;;;256.70;2252.80;;;;;;5152019;27;20468;-72
2022/11/04 05:02:44;;;;;;;33.63;20.95;;;256.60;2252.80;;;;;;5150983;27;20156;-73
2022/11/04 05:05:12;;;;;;;30.85;21.67;;;256.30;2252.80;;;;;;5152190;27;20552;-71
2022/11/04 05:07:38;;;;;;;37.55;22.60;;;256.30;2252.80;;;;;;5151936;27;20464;-75
2022/11/04 05:10:04;;;;;;;27.67;18.35;;;256.30;2252.80;;;;;;5151512;27;20125;-65
2022/11/04 05:13:24;;;;;;;26.55;18.05;;;256.30;2252.80;;;;;;5151699;27;20174;-61
2022/11/04 05:15:16;;;;;;;22.00;15.27;;;256.40;2252.80;;;;;;5151715;27;20027;-74
2022/11/04 05:17:42;;;;;;;22.73;14.65;;;256.50;2252.80;;;;;;5151824;27;20536;-73
2022/11/04 05:20:08;;;;;;;23.52;14.65;;;256.60;2252.80;;;;;;5151837;27;20035;-69
2022/11/04 05:22:34;;;;;;;42.28;32.05;;;256.60;2252.80;;;;;;5151405;27;20097;-74
2022/11/04 05:25:00;;;;;;;58.90;38.05;;;256.00;2252.80;;;;;;5151693;27;20046;-73
2022/11/04 05:27:25;;;;;;;59.40;38.10;;;231.00;2252.80;;;;;;5151911;27;20441;-74
2022/11/04 05:29:51;;;;;;;49.83;34.90;;;230.80;2252.80;;;;;;5151214;27;20072;-73
2022/11/04 05:32:17;;;;;;;52.97;34.35;;;230.80;2252.80;;;;;;5151711;27;20027;-62
2022/11/04 05:34:42;;;;;;;52.03;30.80;;;230.90;2252.80;;;;;;5151494;27;20430;-61
2022/11/04 05:37:08;;;;;;;49.58;33.83;;;230.90;2252.80;;;;;;5151764;27;20101;-71
2022/11/04 05:39:34;;;;;;;45.53;28.90;;;231.00;2252.80;;;;;;5151048;27;20043;-69
2022/11/04 05:41:59;;;;;;;45.95;30.38;;;231.00;2252.80;;;;;;5151473;27;20031;-62
2022/11/04 05:44:25;;;;;;;45.72;27.02;;;231.10;2252.80;;;;;;5151633;27;20022;-61
2022/11/04 05:46:52;;;;;;;31.80;24.55;;;231.30;2252.80;;;;;;5151230;27;20361;-63
2022/11/04 05:49:17;;;;;;;37.83;24.17;;;231.30;2252.80;;;;;;5151596;27;20445;-65
2022/11/04 05:51:43;;;;;;;40.63;25.13;;;256.10;2252.80;;;;;;5151190;27;20022;-64
2022/11/04 05:54:09;;;;;;;36.22;25.20;;;256.20;2252.80;;;;;;5151328;27;20387;-63
2022/11/04 05:56:35;;;;;;;35.63;24.27;;;256.40;2252.80;;;;;;5151324;27;20055;-63
2022/11/04 05:59:00;;;;;;;39.75;22.33;;;256.70;2252.80;;;;;;5151064;27;20109;-66
2022/11/04 06:01:34;;;;;;;32.55;20.65;;;256.90;2252.80;;;;;;5151410;27;20019;-69
2022/11/04 06:04:01;;;;;;;35.20;21.13;;;281.70;2278.40;;;;;;5151145;27;20414;-60
2022/11/04 06:06:31;;;;;;;38.97;26.77;;;281.70;2278.40;;;;;;5151082;27;20466;-70
2022/11/04 06:08:57;;;;;;;38.05;25.58;;;281.60;2278.40;;;;;;5150985;27;20019;-71
2022/11/04 06:11:24;;;;;;;39.55;26.42;;;281.70;2278.40;;;;;;5150890;27;20023;-71
2022/11/04 06:13:50;;;;;;;164.95;109.32;;;281.70;2278.40;;;;;;5151002;27;20547;-61
2022/11/04 06:16:16;;;;;;;131.10;97.80;;;281.90;2278.40;;;;;;5154876;27;20022;-64
2022/11/04 06:18:42;;;;;;;92.05;65.72;;;282.00;2278.40;;;;;;5154879;27;20071;-73
2022/11/04 06:21:13;;;;;;;38.22;27.52;;;282.00;2278.40;;;;;;5155158;27;20019;-73
2022/11/04 06:23:40;;;;;;;30.95;19.77;;;282.10;2278.40;;;;;;5154825;27;20035;-73
2022/11/04 06:26:06;;;;;;;27.13;16.17;;;282.20;2278.40;;;;;;5154867;27;20384;-72
2022/11/04 06:28:32;;;;;;;25.30;15.82;;;282.20;2278.40;;;;;;5154443;27;20034;-72
2022/11/04 06:31:00;;;;;;;22.85;14.90;;;282.40;2278.40;;;;;;5154836;27;20284;-72
2022/11/04 06:33:26;;;;;;;25.75;17.35;;;282.40;2278.40;;;;;;5154793;27;20035;-72
2022/11/04 06:35:55;;;;;;;24.88;15.35;;;307.20;2304.00;;;;;;5154542;27;20019;-72
2022/11/04 06:38:21;;;;;;;136.60;88.95;;;307.40;2304.00;;;;;;5154239;27;20425;-72
2022/11/04 06:40:46;;;;;;;115.95;74.80;;;282.00;2278.40;;;;;;5154506;27;20047;-72
2022/11/04 06:43:12;;;;;;;115.75;68.57;;;281.60;2278.40;;;;;;5154308;27;20399;-62
2022/11/04 06:45:38;;;;;;;108.38;71.82;;;256.90;2252.80;;;;;;5154685;27;20106;-66
2022/11/04 06:48:04;;;;;;;105.88;67.20;;;281.60;2278.40;;;;;;5154277;27;20099;-74
2022/11/04 06:50:29;;;;;;;101.82;64.80;;;281.70;2278.40;;;;;;5154699;27;20387;-73
2022/11/04 06:52:55;;;;;;;86.53;58.05;;;281.90;2278.40;;;;;;5154209;27;20067;-68
2022/11/04 06:55:21;;;;;;;104.15;67.35;;;281.80;2278.40;;;;;;5154361;27;20025;-72
2022/11/04 06:57:46;;;;;;;103.95;77.53;;;282.20;2278.40;;;;;;5154228;27;20027;-72
2022/11/04 07:00:13;;;;;;;92.85;67.47;;;282.40;2278.40;;;;;;5154097;27;20054;-65
2022/11/04 07:02:38;;;;;;;70.80;47.60;;;307.30;2304.00;;;;;;5154278;27;20055;-73
2022/11/04 07:05:05;;;;;;;73.07;51.03;;;307.60;2304.00;;;;;;5154154;27;20038;-73
2022/11/04 07:07:31;;;;;;;83.03;53.83;;;307.60;2304.00;;;;;;5153890;27;20022;-73
2022/11/04 07:09:56;;;;;;;69.65;47.45;;;307.60;2304.00;;;;;;5154003;27;20486;-73
2022/11/04 07:12:23;;;;;;;73.60;47.65;;;307.80;2304.00;;;;;;5153748;27;20019;-63
2022/11/04 07:14:50;;;;;;;74.28;51.13;;;308.00;2304.00;;;;;;5154016;27;20030;-73
2022/11/04 07:17:16;;;;;;;83.70;54.63;;;332.80;2329.60;;;;;;5153989;27;20015;-74
2022/11/04 07:19:41;;;;;;;87.97;62.53;;;332.90;2329.60;;;;;;5153726;27;20376;-70
2022/11/04 07:22:07;;;;;;;99.75;66.50;;;332.90;2329.60;;;;;;5153913;27;20094;-73
2022/11/04 07:24:33;;;;;;;95.78;66.38;;;333.20;2329.60;;;;;;5153618;27;20026;-73
2022/11/04 07:26:59;;;;;;;80.50;59.45;;;359.20;2329.60;;;;;;5153134;27;20042;-68
2022/11/04 07:29:25;;;;;;;70.55;55.40;;;409.60;2355.20;;;;;;5153792;27;20541;-75
2022/11/04 07:31:51;;;;;;;72.93;50.25;;;409.70;2355.20;;;;;;5153334;27;20520;-60
2022/11/04 07:34:17;;;;;;;74.40;50.42;;;409.80;2355.20;;;;;;5153412;27;20038;-60
2022/11/04 07:36:42;;;;;;;70.75;53.22;;;384.60;2329.60;;;;;;5153122;27;20018;-61
2022/11/04 07:39:08;;;;;;;80.43;66.90;;;435.30;2355.20;;;;;;5153310;27;20460;-60
2022/11/04 07:41:34;;;;;;;75.35;60.15;;;436.00;2355.20;;;;;;5153119;27;20365;-61
2022/11/04 07:44:04;;;;;;;90.72;68.28;;;486.60;2380.80;;;;;;5153582;27;20029;-61
2022/11/04 07:46:30;;;;;;;102.45;76.93;;;486.50;2329.60;;;;;;5153487;27;20027;-61
2022/11/04 07:48:57;;;;;;;97.90;77.07;;;460.90;2380.80;;;;;;5153251;27;20457;-60
2022/11/04 07:51:24;;;;;;;127.80;92.18;;;512.50;2278.40;;;;;;5153030;27;20029;-61
2022/11/04 07:53:50;;;;;;;105.55;85.55;;;487.20;2176.00;;;;;;5153151;27;20030;-61
2022/11/04 07:56:17;;;;;;;105.65;81.45;;;512.10;2227.20;;;;;;5153374;27;20022;-62
2022/11/04 07:58:43;;;;;;;118.88;89.97;;;487.20;2201.60;;;;;;5153041;27;20050;-61
2022/11/04 08:01:12;;;;;;;130.05;85.72;;;460.80;2380.80;;;;;;5153273;27;20019;-61
2022/11/04 08:03:38;;;;;;;131.70;82.95;;;435.80;2355.20;;;;;;5153031;27;20460;-60
2022/11/04 08:06:06;;;;;;;99.25;69.22;;;410.40;2355.20;;;;;;5152760;27;20079;-61
2022/11/04 08:08:32;;;;;;;110.28;73.95;;;410.50;2355.20;;;;;;5152572;27;20038;-61
2022/11/04 08:11:07;;;;;;;96.88;55.15;;;435.40;2355.20;;;;;;5153023;27;20107;-61
2022/11/04 08:13:35;;;;;;;107.50;70.60;;;435.20;2355.20;;;;;;5152669;27;20046;-61
2022/11/04 08:16:02;;;;;;;69.65;51.05;;;410.20;2355.20;;;;;;5152633;27;20022;-61
2022/11/04 08:18:33;;;;;;;105.82;63.83;;;410.30;2355.20;;;;;;5152692;27;20034;-61
2022/11/04 08:20:59;;;;;;;80.45;54.28;;;435.30;2355.20;;;;;;5152643;27;20576;-60
2022/11/04 08:23:25;;;;;;;59.85;40.45;;;435.50;2355.20;;;;;;5152248;27;20026;-61
2022/11/04 08:25:50;;;;;;;89.05;55.20;;;435.60;2355.20;;;;;;5152542;27;20074;-61
2022/11/04 08:28:16;;;;;;;40.78;24.25;;;435.50;2355.20;;;;;;5152855;27;20018;-60
2022/11/04 08:30:53;;;;;;;36.72;20.27;;;435.80;2355.20;;;;;;5152477;27;20460;-61
2022/11/04 08:33:19;;;;;;;30.38;16.13;;;436.10;2355.20;;;;;;5152591;27;20095;-60
2022/11/04 08:35:44;;;;;;;22.42;14.13;;;461.10;2355.20;;;;;;5152183;27;20027;-62
2022/11/04 08:38:10;;;;;;;27.45;14.82;;;461.50;2304.00;;;;;;5152389;27;20424;-62
2022/11/04 08:40:36;;;;;;;21.23;13.00;;;461.70;2227.20;;;;;;5152281;27;20058;-60
2022/11/04 08:43:02;;;;;;;22.50;14.23;;;487.30;2150.40;;;;;;5152212;27;20035;-61
2022/11/04 08:45:27;;;;;;;17.08;11.32;;;512.30;2022.40;;;;;;5152295;27;20467;-61
2022/11/04 08:47:53;;;;;;;22.77;11.95;;;512.40;1996.80;;;;;;5152226;27;20039;-61
2022/11/04 08:50:19;;;;;;;18.15;11.93;;;512.30;1971.20;;;;;;5152236;27;20387;-61
2022/11/04 08:52:45;;;;;;;19.48;12.63;;;512.70;1920.00;;;;;;5151777;27;20114;-61
2022/11/04 08:55:10;;;;;;;23.02;13.93;;;512.40;1996.80;;;;;;5152008;27;20026;-61
2022/11/04 08:57:36;;;;;;;19.80;11.00;;;512.50;1996.80;;;;;;5152388;27;20023;-60
2022/11/04 09:00:04;;;;;;;18.25;11.30;;;512.70;1971.20;;;;;;5152062;27;20038;-60
2022/11/04 09:02:29;;;;;;;31.17;18.85;;;537.90;1945.60;;;;;;5152193;27;20413;-62
2022/11/04 09:04:55;;;;;;;37.25;22.98;;;537.90;1920.00;;;;;;5151990;27;20113;-61
2022/11/04 09:07:21;;;;;;;33.25;21.23;;;537.90;1920.00;;;;;;5151636;27;20376;-60
2022/11/04 09:09:47;;;;;;;36.15;24.95;;;538.30;1894.40;;;;;;5151833;27;20029;-61
2022/11/04 09:12:12;;;;;;;28.02;17.20;;;538.00;1920.00;;;;;;5151837;27;20019;-61
2022/11/04 09:14:38;;;;;;;47.03;28.55;;;538.00;1920.00;;;;;;5151848;27;20476;-60
2022/11/04 09:17:04;;;;;;;53.10;35.88;;;537.60;1971.20;;;;;;5151641;27;20015;-60
2022/11/04 09:19:29;;;;;;;22.40;15.93;;;537.70;1971.20;;;;;;5151786;27;20037;-59
2022/11/04 09:21:55;;;;;;;23.83;16.30;;;537.60;1971.20;;;;;;5151750;27;20456;-61
2022/11/04 09:24:21;;;;;;;29.80;16.80;;;537.90;1971.20;;;;;;5151514;27;20098;-61
2022/11/04 09:26:46;;;;;;;31.50;20.50;;;538.00;1945.60;;;;;;5151675;27;20372;-61
2022/11/04 09:29:12;;;;;;;23.50;17.80;;;538.20;1971.20;;;;;;5132826;27;20023;-61
2022/11/04 09:31:38;;;;;;;14.73;7.85;;;538.30;1920.00;;;;;;5151955;27;20416;-61
2022/11/04 09:34:04;;;;;;;14.85;8.80;;;538.40;1868.80;;;;;;5151649;27;20030;-61
2022/11/04 09:36:29;;;;;;;10.73;8.55;;;538.50;1868.80;;;;;;5151648;27;20377;-61
2022/11/04 09:38:56;;;;;;;16.83;6.07;;;563.20;1868.80;;;;;;5151618;27;20031;-59
2022/11/04 09:41:34;;;;;;;12.82;7.82;;;563.20;1843.20;;;;;;5151277;27;20070;-61
2022/11/04 09:44:08;;;;;;;10.45;6.60;;;538.50;1843.20;;;;;;5151572;27;20096;-61
2022/11/04 09:46:35;;;;;;;12.90;7.57;;;563.20;1843.20;;;;;;5151376;27;20019;-59
2022/11/04 09:49:04;;;;;;;11.50;7.75;;;563.40;1868.80;;;;;;5151512;27;20019;-61
2022/11/04 09:51:30;;;;;;;12.07;7.30;;;563.40;1843.20;;;;;;5155641;27;20114;-61
2022/11/04 09:54:24;;;;;;;11.30;7.00;;;563.50;1817.60;;;;;;5155755;27;20035;-61
2022/11/04 09:56:52;;;;;;;11.35;6.22;;;563.50;1817.60;;;;;;5155645;27;20022;-61
2022/11/04 09:59:27;;;;;;;13.48;8.07;;;563.60;1817.60;;;;;;5155549;27;20022;-61
2022/11/04 10:02:16;;;;;;;14.85;7.53;;;563.60;1792.00;;;;;;5155284;27;20026;-61
2022/11/04 10:05:13;;;;;;;28.05;25.27;;;563.50;1817.60;;;;;;5071176;28;20035;-61
2022/11/04 10:07:56;;;;;;;14.63;11.18;;;563.60;1817.60;;;;;;5071241;28;20040;-63
2022/11/04 10:10:46;;;;;;;19.08;15.38;;;563.80;1792.00;;;;;;5070963;28;20044;-63
2022/11/04 10:13:24;;;;;;;15.40;10.02;;;563.80;1792.00;;;;;;5070832;28;20155;-62
2022/11/04 10:16:06;;;;;;;283.38;258.80;;;563.90;1766.40;;;;;;5071029;28;20528;-61
2022/11/04 10:19:04;;;;;;;45.45;40.95;;;563.90;1792.00;;;;;;5070866;28;20029;-63
2022/11/04 10:21:39;;;;;;;17.95;15.57;;;563.90;1766.40;;;;;;5070551;28;20450;-62
2022/11/04 10:24:18;;;;;;;11.60;7.72;;;563.90;1766.40;;;;;;5070706;28;20032;-62
2022/11/04 10:26:49;;;;;;;14.70;8.32;;;563.90;1740.80;;;;;;5070646;28;20037;-62
2022/11/04 10:29:28;;;;;;;14.15;8.77;;;564.00;1766.40;;;;;;5070745;28;20580;-61
2022/11/04 10:31:57;;;;;;;14.60;8.23;;;564.00;1766.40;;;;;;5070478;28;20064;-60
2022/11/04 10:34:47;;;;;;;12.20;8.50;;;564.00;1766.40;;;;;;5070611;28;20056;-62
2022/11/04 10:37:12;;;;;;;14.80;11.35;;;564.00;1740.80;;;;;;5070546;28;20016;-61
2022/11/04 10:39:44;;;;;;;21.90;14.35;;;564.00;1740.80;;;;;;5070446;28;20075;-63
2022/11/04 10:42:17;;;;;;;21.42;17.67;;;563.90;1766.40;;;;;;5109780;27;20118;-61
2022/11/04 10:44:44;;;;;;;;;;;563.80;1792.00;;;;;;5155058;27;20380;-61
2022/11/04 10:47:22;;;;;;;30.42;24.65;;;563.60;1792.00;;;;;;5154804;27;19903;-62
2022/11/04 10:50:03;;;;;;;18.38;13.60;;;563.50;1817.60;;;;;;5154549;27;20023;-61
2022/11/04 10:52:33;;;;;;;12.23;8.30;;;563.30;1817.60;;;;;;5154300;27;20062;-61
2022/11/04 10:54:59;;;;;;;16.42;9.63;;;563.30;1817.60;;;;;;5154565;27;20027;-61
2022/11/04 10:57:25;;;;;;;31.00;18.65;;;563.30;1817.60;;;;;;5154186;27;20479;-61
2022/11/04 11:00:04;;;;;;;14.13;7.82;;;563.40;1817.60;;;;;;5153953;27;20027;-61
2022/11/04 11:02:35;;;;;;;109.20;55.70;;;563.20;1817.60;;;;;;5154256;27;20030;-62
2022/11/04 11:05:22;;;;;;;26.40;14.65;;;538.50;1792.00;;;;;;5154054;27;20023;-62
2022/11/04 11:07:51;;;;;;;31.77;15.88;;;538.10;1817.60;;;;;;5154122;27;20019;-62
2022/11/04 11:10:20;;;;;;;20.27;10.95;;;537.90;1817.60;;;;;;5154105;27;20027;-61
2022/11/04 11:13:03;;;;;;;20.02;11.95;;;537.70;1817.60;;;;;;5153713;27;20464;-61
2022/11/04 11:15:36;;;;;;;24.25;9.00;;;537.60;1843.20;;;;;;5153820;27;20031;-62
2022/11/04 11:18:05;;;;;;;16.35;10.13;;;512.90;1792.00;;;;;;5153737;27;20023;-61
2022/11/04 11:23:46;;;;;;;14.40;8.52;;;537.60;1817.60;;;;;;5089957;28;20047;-62
2022/11/04 11:26:20;;;;;;;11.07;5.95;;;537.60;1792.00;;;;;;5089883;28;20031;-62
2022/11/04 11:29:10;;;;;;;11.65;7.40;;;537.70;1792.00;;;;;;5089755;28;20036;-62
2022/11/04 11:31:38;;;;;;;13.50;8.05;;;537.70;1817.60;;;;;;5089694;28;20085;-62
2022/11/04 11:34:25;;;;;;;15.50;8.00;;;537.70;1817.60;;;;;;5089572;28;20086;-63
2022/11/04 11:36:52;;;;;;;16.05;7.97;;;537.80;1817.60;;;;;;5089706;28;20095;-61
2022/11/04 11:39:21;;;;;;;19.55;8.70;;;537.80;1792.00;;;;;;5087991;28;20036;-61
2022/11/04 11:42:00;;;;;;;16.35;7.38;;;537.70;1792.00;;;;;;5069658;28;20099;-61
2022/11/04 11:44:31;;;;;;;9.55;5.90;;;537.70;1792.00;;;;;;5069750;28;20409;-61
2022/11/04 11:47:06;;;;;;;15.95;7.68;;;537.80;1766.40;;;;;;5069435;28;20047;-60
2022/11/04 11:49:36;;;;;;;13.65;8.68;;;537.80;1792.00;;;;;;5069290;28;20027;-60
2022/11/04 11:52:21;;;;;;;21.33;11.75;;;537.80;1792.00;;;;;;5069144;28;20035;-61
2022/11/04 11:54:51;;;;;;;13.23;8.70;;;537.70;1792.00;;;;;;5069185;28;20115;-61
2022/11/04 11:57:43;;;;;;;17.95;10.57;;;537.80;1792.00;;;;;;5069468;28;20151;-61
2022/11/04 12:00:15;;;;;;;16.77;11.35;;;537.80;1792.00;;;;;;5087269;28;20041;-61
2022/11/04 12:03:29;;;;;;;20.98;14.55;;;537.80;1792.00;;;;;;5111953;28;20023;-61
2022/11/04 12:06:14;;;;;;;25.77;12.50;;;537.90;1817.60;;;;;;5049033;28;20029;-61
2022/11/04 12:09:32;;;;;;;21.55;11.63;;;537.80;1817.60;;;;;;5049044;28;20035;-61
2022/11/04 12:12:06;;;;;;;19.23;10.75;;;537.90;1766.40;;;;;;5008588;28;20080;-61
2022/11/04 12:14:54;;;;;;;19.42;9.80;;;537.90;1792.00;;;;;;5008848;28;20052;-61
2022/11/04 12:17:23;;;;;;;16.58;9.77;;;537.90;1792.00;;;;;;5009211;28;20034;-60
2022/11/04 12:20:04;;;;;;;23.50;14.30;;;537.90;1792.00;;;;;;5009091;28;20564;-62
2022/11/04 12:22:35;;;;;;;28.23;14.20;;;537.90;1792.00;;;;;;5008959;28;20113;-61
2022/11/04 12:25:23;;;;;;;23.90;14.13;;;537.80;1792.00;;;;;;5008756;28;20571;-61
2022/11/04 12:28:10;;;;;;;22.05;14.75;;;537.70;1817.60;;;;;;5008834;28;20033;-61
2022/11/04 12:31:18;;;;;;;18.48;10.57;;;537.80;1792.00;;;;;;5008846;28;20556;-60
2022/11/04 12:33:52;;;;;;;17.05;11.55;;;537.70;1792.00;;;;;;5008477;28;20046;-60
2022/11/04 12:37:03;;;;;;;24.13;12.13;;;537.70;1817.60;;;;;;5008826;28;20064;-60
2022/11/04 12:40:06;;;;;;;20.85;13.27;;;537.70;1817.60;;;;;;5011091;28;20041;-60
2022/11/04 12:42:41;;;;;;;14.75;10.13;;;537.70;1792.00;;;;;;5011214;28;20495;-61
2022/11/04 12:45:37;;;;;;;77.35;50.20;;;537.60;1792.00;;;;;;5028531;28;20038;-61
2022/11/04 12:48:07;;;;;;;31.33;19.08;;;537.60;1817.60;;;;;;5026768;28;20592;-61
2022/11/04 12:50:52;;;;;;;17.98;9.98;;;512.80;1817.60;;;;;;5088411;28;20479;-61
2022/11/04 12:53:36;;;;;;;72.32;45.80;;;512.80;1792.00;;;;;;5088355;28;20063;-61
2022/11/04 12:56:09;;;;;;;65.97;42.28;;;512.90;1792.00;;;;;;5088150;28;20492;-61
2022/11/04 12:58:55;;;;;;;248.68;175.27;;;512.80;1792.00;;;;;;5088167;28;20158;-61